Time;durP1;ratioP1;P1;durP2;ratioP2;P2;SDS_P1;SDS_P2;PMS_P1;PMS_P2;Temp;Humidity;BMP_temperature;BMP_pressure;BME280_temperature;BME280_humidity;BME280_pressure;Samples;Min_cycle;Max_cycle;Signal;HPM_P1;HPM_P2
2023/05/05 00:00:57;;;;;;;;;6.60;6.00;;;;;18.14;41.96;99713.72;5117951;28;8916;-85
2023/05/05 00:03:25;;;;;;;;;7.60;7.60;;;;;18.07;42.30;99713.56;5117843;28;8812;-85
2023/05/05 00:05:53;;;;;;;;;6.00;6.00;;;;;18.00;42.29;99712.56;5118071;28;8828;-85
2023/05/05 00:08:21;;;;;;;;;6.00;6.00;;;;;17.92;42.16;99712.59;5118096;28;8840;-85
2023/05/05 00:10:49;;;;;;;;;7.00;6.00;;;;;17.87;42.36;99709.59;5118583;28;8928;-85
2023/05/05 00:13:17;;;;;;;;;6.80;6.20;;;;;17.85;42.04;99713.47;5118640;28;8844;-85
2023/05/05 00:15:45;;;;;;;;;5.20;5.20;;;;;17.80;42.53;99722.09;5117977;28;8824;-85
2023/05/05 00:18:13;;;;;;;;;6.50;6.50;;;;;17.74;42.81;99712.00;5117886;28;8847;-85
2023/05/05 00:20:40;;;;;;;;;7.40;6.40;;;;;17.68;42.85;99707.28;5117288;28;8820;-86
2023/05/05 00:23:08;;;;;;;;;8.00;8.00;;;;;17.63;42.55;99715.03;5117940;28;9552;-86
2023/05/05 00:25:36;;;;;;;;;7.00;7.00;;;;;17.56;43.03;99714.09;5117446;28;8832;-85
2023/05/05 00:28:03;;;;;;;;;5.50;5.25;;;;;17.48;42.92;99711.38;5117733;28;8840;-86
2023/05/05 00:30:31;;;;;;;;;9.25;9.00;;;;;17.42;42.90;99716.63;5117266;28;8920;-85
2023/05/05 00:32:59;;;;;;;;;7.50;7.50;;;;;17.32;43.74;99714.06;5117590;28;8854;-85
2023/05/05 00:35:27;;;;;;;;;6.20;6.00;;;;;17.25;43.52;99704.97;5118229;28;8831;-85
2023/05/05 00:37:55;;;;;;;;;5.50;4.50;;;;;17.24;43.18;99697.09;5118122;28;8843;-85
2023/05/05 00:40:22;;;;;;;;;11.25;9.25;;;;;17.19;43.39;99700.31;5117281;28;9283;-85
2023/05/05 00:42:50;;;;;;;;;9.75;7.00;;;;;17.19;43.42;99700.31;5117100;28;8832;-85
2023/05/05 00:45:18;;;;;;;;;7.50;6.25;;;;;17.19;43.59;99696.75;5120658;28;8842;-85
2023/05/05 00:47:45;;;;;;;;;7.00;6.50;;;;;17.18;43.24;99693.25;5121253;28;8843;-86
2023/05/05 00:50:13;;;;;;;;;7.00;6.50;;;;;17.18;43.30;99692.41;5121504;28;8856;-85
2023/05/05 00:52:41;;;;;;;;;7.75;6.75;;;;;17.13;43.28;99689.34;5121506;28;8868;-86
2023/05/05 00:55:08;;;;;;;;;7.00;7.00;;;;;17.08;43.64;99691.75;5121109;28;8832;-85
2023/05/05 00:57:39;;;;;;;;;7.25;6.25;;;;;17.04;43.92;99690.38;5121212;28;8877;-85
2023/05/05 01:00:08;;;;;;;;;9.00;9.00;;;;;16.98;43.96;99688.34;5121493;28;8892;-85
2023/05/05 01:02:36;;;;;;;;;7.50;6.50;;;;;16.94;44.08;99689.72;5120954;28;8808;-85
2023/05/05 01:05:04;;;;;;;;;7.50;7.00;;;;;16.92;44.05;99689.03;5121531;28;9473;-85
2023/05/05 01:07:32;;;;;;;;;8.00;6.50;;;;;16.92;44.11;99686.34;5121882;28;8832;-84
2023/05/05 01:10:00;;;;;;;;;8.00;8.00;;;;;16.90;43.76;99689.22;5121950;28;8848;-85
2023/05/05 01:12:46;;;;;;;;;8.50;8.00;;;;;16.92;43.58;99689.88;5121259;28;8828;-85
2023/05/05 01:15:13;;;;;;;;;9.50;8.00;;;;;16.95;44.03;99680.63;5119827;28;8974;-84
2023/05/05 01:17:41;;;;;;;;;7.50;7.50;;;;;16.94;44.40;99677.09;5120705;28;9525;-85
2023/05/05 01:20:09;;;;;;;;;6.00;4.50;;;;;16.96;43.43;99682.31;5120052;28;8831;-85
2023/05/05 01:22:37;;;;;;;;;12.50;11.00;;;;;16.97;44.03;99689.38;5119805;28;8831;-85
2023/05/05 01:25:05;;;;;;;;;5.50;5.00;;;;;16.96;44.37;99687.69;5119361;28;8850;-84
2023/05/05 01:27:33;;;;;;;;;8.50;7.00;;;;;16.95;44.21;99680.63;5118993;28;8958;-85
2023/05/05 01:30:00;;;;;;;;;9.25;9.00;;;;;16.94;44.27;99690.53;5118884;28;8840;-85
2023/05/05 01:32:28;;;;;;;;;6.50;6.50;;;;;16.92;43.89;99681.81;5118740;28;9517;-86
2023/05/05 01:34:56;;;;;;;;;7.00;6.00;;;;;16.92;44.24;99681.81;5118672;28;8835;-85
2023/05/05 01:37:23;;;;;;;;;3.50;3.00;;;;;16.92;43.85;99679.13;5117978;28;8843;-84
2023/05/05 01:39:51;;;;;;;;;6.00;6.00;;;;;16.94;44.36;99674.41;5118586;28;8816;-85
2023/05/05 01:42:18;;;;;;;;;8.00;8.00;;;;;16.95;44.26;99670.69;5118358;28;8855;-85
2023/05/05 01:44:46;;;;;;;;;8.00;6.25;;;;;16.97;44.04;99679.47;5120180;28;8840;-85
2023/05/05 01:47:14;;;;;;;;;4.00;4.00;;;;;17.00;44.44;99678.28;5118616;28;8928;-86
2023/05/05 01:49:42;;;;;;;;;8.00;7.00;;;;;17.04;44.31;99677.78;5118675;28;8863;-86
2023/05/05 01:52:09;;;;;;;;;7.50;7.50;;;;;17.08;43.84;99678.28;5119068;28;8936;-84
2023/05/05 01:54:37;;;;;;;;;7.50;7.00;;;;;17.10;44.06;99677.06;5119311;28;8924;-85
2023/05/05 01:57:05;;;;;;;;;6.50;6.50;;;;;17.12;44.29;99677.78;5119805;28;8855;-84
2023/05/05 01:59:32;;;;;;;;;6.00;6.00;;;;;17.14;44.80;99680.28;5119615;28;8832;-84
2023/05/05 02:02:01;;;;;;;;;7.00;7.00;;;;;17.18;44.56;99681.63;5118974;28;9546;-84
2023/05/05 02:04:30;;;;;;;;;5.75;5.25;;;;;17.23;44.64;99680.09;5119304;28;8828;-84
2023/05/05 02:06:57;;;;;;;;;7.50;7.25;;;;;17.27;44.57;99684.16;5119019;28;8892;-85
2023/05/05 02:09:25;;;;;;;;;6.25;6.25;;;;;17.28;44.09;99685.81;5118891;28;8962;-85
2023/05/05 02:11:53;;;;;;;;;7.50;7.00;;;;;17.30;44.08;99688.34;5118980;28;8884;-85
2023/05/05 02:14:21;;;;;;;;;4.00;4.00;;;;;17.33;44.60;99691.50;5120010;28;8836;-85
2023/05/05 02:16:48;;;;;;;;;6.00;6.00;;;;;17.36;44.12;99698.41;5122404;28;8881;-85
2023/05/05 02:19:16;;;;;;;;;7.00;7.00;;;;;17.39;44.23;99690.88;5122801;28;8867;-85
2023/05/05 02:21:43;;;;;;;;;7.00;6.50;;;;;17.41;44.36;99691.56;5122893;28;8815;-85
2023/05/05 02:24:11;;;;;;;;;9.00;9.00;;;;;17.43;44.39;99692.22;5122706;28;9501;-85
2023/05/05 02:26:39;;;;;;;;;3.25;2.00;;;;;17.45;44.32;99694.75;5123230;28;8920;-86
2023/05/05 02:29:07;;;;;;;;;8.50;8.00;;;;;17.48;44.38;99694.41;5122368;28;9490;-86
2023/05/05 02:31:34;;;;;;;;;9.00;9.00;;;;;17.47;43.86;99695.41;5122657;28;8839;-85
2023/05/05 02:34:02;;;;;;;;;7.00;7.00;;;;;17.46;44.37;99697.25;5123137;28;8959;-85
2023/05/05 02:36:30;;;;;;;;;9.25;6.50;;;;;17.42;44.46;99693.25;5122799;28;8912;-85
2023/05/05 02:38:58;;;;;;;;;7.25;6.25;;;;;17.37;44.08;99702.81;5122317;28;8856;-85
2023/05/05 02:41:25;;;;;;;;;10.00;9.75;;;;;17.34;44.38;99703.13;5123302;28;8832;-85
2023/05/05 02:43:53;;;;;;;;;7.50;7.00;;;;;17.34;44.89;99713.91;5123097;28;8812;-84
2023/05/05 02:46:21;;;;;;;;;9.50;8.00;;;;;17.31;45.19;99709.69;5121154;28;8820;-85
2023/05/05 02:48:49;;;;;;;;;8.50;8.50;;;;;17.30;44.94;99712.59;5118900;28;8820;-85
2023/05/05 02:51:17;;;;;;;;;8.00;7.25;;;;;17.28;44.75;99710.06;5121052;28;8843;-85
2023/05/05 02:53:44;;;;;;;;;9.00;9.00;;;;;17.23;45.14;99704.31;5121290;28;8820;-85
2023/05/05 02:56:12;;;;;;;;;9.25;8.00;;;;;17.17;45.37;99714.94;5120550;28;8840;-85
2023/05/05 02:58:41;;;;;;;;;9.50;9.00;;;;;17.11;45.53;99721.84;5119056;28;8840;-85
2023/05/05 03:01:08;;;;;;;;;6.25;6.00;;;;;17.08;45.51;99719.47;5116115;28;8832;-85
2023/05/05 03:03:36;;;;;;;;;10.00;9.25;;;;;17.07;45.91;99716.94;5118073;28;8836;-85
2023/05/05 03:06:04;;;;;;;;;9.50;9.00;;;;;17.08;46.09;99711.41;5117429;28;8863;-85
2023/05/05 03:08:32;;;;;;;;;7.25;6.75;;;;;17.07;46.06;99715.09;5117808;28;8855;-85
2023/05/05 03:11:00;;;;;;;;;9.75;8.50;;;;;17.05;45.81;99719.81;5118316;28;8824;-85
2023/05/05 03:13:27;;;;;;;;;6.50;6.50;;;;;17.05;46.06;99722.50;5118527;28;8931;-85
2023/05/05 03:15:55;;;;;;;;;7.50;7.50;;;;;17.05;45.87;99719.81;5118567;28;8816;-85
2023/05/05 03:18:23;;;;;;;;;7.00;7.00;;;;;17.05;46.15;99718.97;5117689;28;8844;-84
2023/05/05 03:20:50;;;;;;;;;10.50;8.50;;;;;17.03;46.19;99721.84;5116734;28;8840;-86
2023/05/05 03:23:19;;;;;;;;;9.50;9.50;;;;;17.01;46.33;99725.72;5116362;28;8832;-86
2023/05/05 03:25:47;;;;;;;;;10.00;8.00;;;;;16.98;46.45;99734.94;5117390;28;9560;-86
2023/05/05 03:28:15;;;;;;;;;8.50;7.00;;;;;16.91;46.63;99736.63;5116546;28;8862;-85
2023/05/05 03:30:43;;;;;;;;;7.00;6.25;;;;;16.86;47.00;99738.97;5118521;28;8836;-85
2023/05/05 03:33:11;;;;;;;;;9.75;9.25;;;;;16.83;47.10;99743.84;5117302;28;8913;-85
2023/05/05 03:35:38;;;;;;;;;9.00;7.50;;;;;16.79;47.11;99739.81;5117354;28;8847;-85
2023/05/05 03:38:06;;;;;;;;;8.00;8.00;;;;;16.77;47.11;99741.81;5118167;28;9571;-85
2023/05/05 03:40:34;;;;;;;;;10.00;9.50;;;;;16.76;47.10;99743.66;5117840;28;8843;-85
2023/05/05 03:43:10;;;;;;;;;4.00;4.00;;;;;16.75;46.97;99747.38;5116746;28;8823;-85
2023/05/05 03:45:38;;;;;;;;;10.50;9.50;;;;;16.75;47.31;99742.00;5118667;28;8828;-85
2023/05/05 03:48:08;;;;;;;;;9.75;9.75;;;;;16.81;47.37;99744.03;5118312;28;8832;-85
2023/05/05 03:50:36;;;;;;;;;13.25;12.50;;;;;16.85;47.13;99748.03;5118549;28;8844;-85
2023/05/05 03:53:04;;;;;;;;;12.50;10.00;;;;;16.91;46.92;99744.69;5117995;28;8836;-85
2023/05/05 03:55:31;;;;;;;;;9.50;9.50;;;;;16.95;47.31;99748.72;5118188;28;8844;-85
2023/05/05 03:57:59;;;;;;;;;9.00;9.00;;;;;16.99;46.73;99752.78;5118211;28;8854;-85
2023/05/05 04:00:27;;;;;;;;;9.00;8.00;;;;;17.01;46.89;99756.13;5118078;28;8820;-86
2023/05/05 04:02:54;;;;;;;;;12.00;10.00;;;;;17.04;47.19;99754.97;5116990;28;8828;-85
2023/05/05 04:05:22;;;;;;;;;11.25;11.25;;;;;17.06;47.38;99752.94;5119357;28;8852;-85
2023/05/05 04:07:50;;;;;;;;;14.00;12.50;;;;;17.04;46.91;99757.66;5118680;28;9490;-85
2023/05/05 04:10:18;;;;;;;;;17.00;16.50;;;;;17.03;47.07;99754.13;5116898;28;8851;-85
2023/05/05 04:12:46;;;;;;;;;13.50;13.00;;;;;17.03;47.09;99756.81;5116287;28;8941;-85
2023/05/05 04:15:14;;;;;;;;;13.75;13.50;;;;;17.03;47.28;99751.44;5116101;28;8869;-85
2023/05/05 04:17:41;;;;;;;;;10.00;10.00;;;;;16.99;47.18;99750.09;5115594;28;8859;-84
2023/05/05 04:20:09;;;;;;;;;12.50;12.00;;;;;16.95;47.68;99751.41;5120269;28;8832;-85
2023/05/05 04:22:37;;;;;;;;;10.00;10.00;;;;;16.93;48.06;99748.06;5120264;28;8897;-85
2023/05/05 04:25:05;;;;;;;;;12.25;12.00;;;;;16.91;47.84;99743.84;5121921;28;8858;-85
2023/05/05 04:27:33;;;;;;;;;16.50;15.25;;;;;16.88;47.86;99753.13;5119350;28;8847;-85
2023/05/05 04:30:00;;;;;;;;;10.00;10.00;;;;;16.88;48.20;99750.44;5119192;28;9544;-85
2023/05/05 04:32:28;;;;;;;;;14.00;13.00;;;;;16.90;48.33;99753.78;5120492;28;8848;-85
2023/05/05 04:34:56;;;;;;;;;13.00;13.00;;;;;16.92;47.80;99756.28;5121231;28;8840;-85
2023/05/05 04:37:24;;;;;;;;;13.50;13.50;;;;;16.91;48.50;99760.84;5120762;28;8832;-85
2023/05/05 04:39:52;;;;;;;;;12.00;11.00;;;;;16.92;48.22;99764.34;5121049;28;8835;-85
2023/05/05 04:42:20;;;;;;;;;12.25;12.25;;;;;16.91;48.17;99773.44;5121311;28;9330;-85
2023/05/05 04:44:47;;;;;;;;;13.50;13.00;;;;;16.92;48.15;99764.34;5121179;28;8852;-86
2023/05/05 04:47:15;;;;;;;;;13.50;12.75;;;;;16.95;48.67;99766.72;5119850;28;8831;-86
2023/05/05 04:49:43;;;;;;;;;14.00;14.00;;;;;16.98;48.60;99769.94;5119710;28;8824;-86
2023/05/05 04:52:11;;;;;;;;;20.00;16.50;;;;;17.00;48.04;99775.16;5119912;28;8880;-87
2023/05/05 04:54:39;;;;;;;;;15.75;15.50;;;;;17.00;48.54;99773.28;5119294;28;8859;-87
2023/05/05 04:57:07;;;;;;;;;15.75;13.00;;;;;17.00;48.44;99770.59;5119526;28;8856;-86
2023/05/05 04:59:35;;;;;;;;;15.25;14.50;;;;;17.01;48.50;99777.66;5119788;28;8842;-87
2023/05/05 05:02:03;;;;;;;;;17.00;15.75;;;;;17.02;48.77;99776.63;5119014;28;8850;-87
2023/05/05 05:04:31;;;;;;;;;15.50;14.50;;;;;17.06;48.51;99779.84;5118527;28;8854;-87
2023/05/05 05:07:00;;;;;;;;;14.25;13.25;;;;;17.09;49.05;99780.34;5119202;28;8856;-87
2023/05/05 05:09:27;;;;;;;;;14.00;12.75;;;;;17.12;48.92;99789.94;5118926;28;8871;-87
2023/05/05 05:11:55;;;;;;;;;17.00;16.00;;;;;17.16;49.05;99792.13;5118544;28;8851;-87
2023/05/05 05:14:23;;;;;;;;;19.00;15.50;;;;;17.20;48.46;99793.50;5117952;28;8836;-87
2023/05/05 05:16:52;;;;;;;;;18.50;15.25;;;;;17.21;49.06;99791.63;5117707;28;8869;-87
2023/05/05 05:19:20;;;;;;;;;16.00;15.50;;;;;17.23;49.20;99790.44;5118741;28;8962;-87
2023/05/05 05:21:47;;;;;;;;;21.50;20.00;;;;;17.24;49.11;99786.75;5118244;28;8823;-86
2023/05/05 05:24:15;;;;;;;;;17.50;16.50;;;;;17.26;49.22;99789.28;5116854;28;8828;-86
2023/05/05 05:26:43;;;;;;;;;9.75;8.50;;;;;17.27;49.06;99791.81;5116038;28;8820;-87
2023/05/05 05:29:11;;;;;;;;;17.00;16.00;;;;;17.28;49.03;99790.81;5116342;28;9497;-86
2023/05/05 05:31:39;;;;;;;;;19.50;18.25;;;;;17.34;49.31;99800.91;5116844;28;8843;-87
2023/05/05 05:34:07;;;;;;;;;18.00;17.00;;;;;17.40;49.70;99805.63;5117024;28;9525;-87
2023/05/05 05:36:37;;;;;;;;;20.50;17.50;;;;;17.48;49.52;99800.22;5115547;28;8878;-87
2023/05/05 05:39:05;;;;;;;;;24.25;22.00;;;;;17.57;49.08;99799.25;5117244;28;8938;-87
2023/05/05 05:41:33;;;;;;;;;21.75;19.50;;;;;17.67;48.86;99799.91;5115649;28;9533;-87
2023/05/05 05:44:00;;;;;;;;;18.00;15.50;;;;;17.76;49.22;99800.72;5117522;28;8834;-86
2023/05/05 05:46:28;;;;;;;;;20.50;17.00;;;;;17.84;49.35;99798.84;5115671;28;8832;-86
2023/05/05 05:48:56;;;;;;;;;18.00;18.00;;;;;17.94;49.03;99804.06;5114955;28;9525;-86
2023/05/05 05:51:23;;;;;;;;;23.00;19.00;;;;;18.01;49.25;99805.06;5114611;28;8843;-85
2023/05/05 05:53:51;;;;;;;;;20.00;19.75;;;;;18.05;49.30;99809.91;5114772;28;8859;-86
2023/05/05 05:56:19;;;;;;;;;15.00;14.00;;;;;18.09;49.13;99813.97;5114869;28;8873;-86
2023/05/05 05:58:48;;;;;;;;;20.00;18.50;;;;;18.14;48.85;99821.53;5114493;28;8920;-86
2023/05/05 06:01:16;;;;;;;;;24.75;22.50;;;;;18.20;48.68;99824.38;5115247;28;8881;-86
2023/05/05 06:03:44;;;;;;;;;21.00;18.25;;;;;18.25;48.53;99819.31;5115395;28;8836;-86
2023/05/05 06:06:12;;;;;;;;;30.00;26.00;;;;;18.27;48.88;99827.19;5115153;28;8836;-86
2023/05/05 06:08:40;;;;;;;;;22.75;20.50;;;;;18.26;49.10;99823.69;5115749;28;8852;-86
2023/05/05 06:11:08;;;;;;;;;20.00;18.00;;;;;18.30;48.80;99825.03;5114932;28;8877;-86
2023/05/05 06:13:35;;;;;;;;;21.00;19.50;;;;;18.37;48.83;99827.88;5113517;28;8974;-86
2023/05/05 06:16:03;;;;;;;;;22.50;19.50;;;;;18.44;48.91;99824.31;5114140;28;8823;-86
2023/05/05 06:18:31;;;;;;;;;26.50;25.00;;;;;18.54;48.50;99829.50;5114967;28;8855;-86
2023/05/05 06:20:59;;;;;;;;;23.50;22.00;;;;;18.64;48.70;99830.97;5114402;28;8848;-86
2023/05/05 06:23:27;;;;;;;;;23.25;20.50;;;;;18.73;48.08;99837.19;5114796;28;8838;-86
2023/05/05 06:25:54;;;;;;;;;21.00;18.75;;;;;18.78;48.75;99827.53;5114756;28;8828;-86
2023/05/05 06:28:22;;;;;;;;;24.00;21.50;;;;;18.85;48.40;99830.34;5114907;28;8836;-86
2023/05/05 06:30:50;;;;;;;;;21.50;18.75;;;;;18.90;48.40;99828.78;5114426;28;8836;-86
2023/05/05 06:33:18;;;;;;;;;19.25;19.25;;;;;18.91;48.39;99838.56;5115274;28;8832;-86
2023/05/05 06:35:46;;;;;;;;;20.75;17.50;;;;;18.90;48.17;99833.38;5116470;28;8839;-85
2023/05/05 06:38:14;;;;;;;;;25.00;22.00;;;;;18.89;48.49;99843.31;5123271;28;8844;-86
2023/05/05 06:40:42;;;;;;;;;21.75;19.25;;;;;18.90;48.67;99836.91;5122208;28;8847;-86
2023/05/05 06:43:10;;;;;;;;;24.50;22.00;;;;;18.89;48.61;99837.09;5113796;28;8886;-86
2023/05/05 06:45:38;;;;;;;;;24.50;23.25;;;;;18.88;48.58;99838.94;5115962;28;8843;-86
2023/05/05 06:48:06;;;;;;;;;22.50;17.75;;;;;18.88;48.63;99840.81;5116264;28;8969;-87
2023/05/05 06:50:33;;;;;;;;;24.75;20.50;;;;;18.92;49.34;99850.22;5115380;28;8867;-86
2023/05/05 06:53:01;;;;;;;;;21.75;20.25;;;;;18.95;48.88;99853.41;5115862;28;8842;-86
2023/05/05 06:55:29;;;;;;;;;19.50;17.75;;;;;19.02;48.39;99840.88;5115620;28;8852;-86
2023/05/05 06:57:56;;;;;;;;;26.25;24.25;;;;;19.12;48.81;99846.88;5115607;28;8866;-87
2023/05/05 07:00:24;;;;;;;;;24.25;21.50;;;;;19.20;48.29;99841.47;5114947;28;8827;-87
2023/05/05 07:02:58;;;;;;;;;29.50;27.00;;;;;19.31;48.68;99841.06;5129051;27;13367;-59
2023/05/05 07:05:26;;;;;;;;;22.00;19.50;;;;;19.44;48.49;99835.91;5112078;28;9517;-60
2023/05/05 07:07:54;;;;;;;;;28.75;26.75;;;;;19.52;47.62;99843.09;5111948;28;8855;-59
2023/05/05 07:10:22;;;;;;;;;16.40;16.40;;;;;19.58;48.39;99848.59;5111407;28;8836;-60
2023/05/05 07:12:50;;;;;;;;;19.80;18.80;;;;;19.65;47.78;99846.84;5110781;28;8832;-60
2023/05/05 07:15:18;;;;;;;;;19.60;17.00;;;;;19.71;47.93;99851.53;5110893;28;8843;-61
2023/05/05 07:17:56;;;;;;;;;22.40;19.60;;;;;19.73;47.88;99846.78;5110431;28;8958;-60
2023/05/05 07:20:24;;;;;;;;;18.80;18.80;;;;;19.76;47.73;99846.44;5110232;28;8847;-60
2023/05/05 07:22:52;;;;;;;;;16.20;14.20;;;;;19.77;48.00;99848.09;5110334;28;8877;-60
2023/05/05 07:25:19;;;;;;;;;19.20;17.00;;;;;19.89;47.81;99846.63;5110056;28;8839;-60
2023/05/05 07:27:48;;;;;;;;;20.20;19.40;;;;;20.00;48.20;99851.59;5110399;28;8840;-60
2023/05/05 07:30:16;;;;;;;;;16.00;16.00;;;;;20.12;47.86;99855.59;5109250;28;8957;-62
2023/05/05 07:32:45;;;;;;;;;17.40;16.60;;;;;20.25;47.17;99853.06;5109440;28;8840;-60
2023/05/05 07:35:14;;;;;;;;;21.00;20.80;;;;;20.34;47.28;99856.53;5109849;28;8835;-59
2023/05/05 07:37:41;;;;;;;;;18.20;15.20;;;;;20.43;47.39;99855.41;5109905;28;8843;-62
2023/05/05 07:40:09;;;;;;;;;16.40;15.80;;;;;20.56;46.75;99850.19;5110065;28;8866;-60
2023/05/05 07:42:38;;;;;;;;;9.40;7.40;;;;;20.67;46.77;99852.41;5110158;28;8843;-60
2023/05/05 07:45:06;;;;;;;;;12.40;12.00;;;;;20.77;46.34;99851.94;5111587;28;8855;-60
2023/05/05 07:47:34;;;;;;;;;17.60;16.40;;;;;20.90;46.23;99848.56;5110840;28;8828;-60
2023/05/05 07:50:02;;;;;;;;;15.20;14.80;;;;;21.02;45.99;99863.31;5111203;28;8840;-59
2023/05/05 07:52:30;;;;;;;;;17.20;16.20;;;;;21.11;46.49;99856.75;5111748;28;8954;-60
2023/05/05 07:55:16;;;;;;;;;14.60;14.60;;;;;21.21;45.82;99860.84;5111561;28;8843;-60
2023/05/05 07:57:44;;;;;;;;;16.60;14.00;;;;;21.25;46.43;99858.59;5111301;28;8839;-62
2023/05/05 08:00:12;;;;;;;;;11.60;9.40;;;;;21.28;45.82;99863.59;5111311;28;8844;-60
2023/05/05 08:02:40;;;;;;;;;10.20;8.60;;;;;21.34;46.15;99869.06;5110953;28;8950;-60
2023/05/05 08:05:08;;;;;;;;;14.60;14.40;;;;;21.39;45.90;99877.47;5110962;28;8961;-60
2023/05/05 08:07:39;;;;;;;;;8.40;8.40;;;;;21.42;45.85;99881.69;5110045;28;8830;-60
2023/05/05 08:10:08;;;;;;;;;9.20;8.60;;;;;21.40;45.98;99886.47;5109340;28;8956;-59
2023/05/05 08:12:36;;;;;;;;;10.60;9.20;;;;;21.37;45.84;99879.56;5105658;28;8849;-60
2023/05/05 08:15:03;;;;;;;;;14.40;13.00;;;;;21.41;46.08;99893.56;5096476;28;8813;-60
2023/05/05 08:17:32;;;;;;;;;17.60;14.80;;;;;21.41;46.26;99888.13;5096726;28;8861;-60
2023/05/05 08:20:00;;;;;;;;;12.60;11.40;;;;;21.44;46.09;99885.03;5095804;28;8875;-59
2023/05/05 08:22:27;;;;;;;;;13.80;13.00;;;;;21.49;46.08;99893.44;5096390;28;8834;-61
2023/05/05 08:24:55;;;;;;;;;15.40;12.20;;;;;21.52;45.87;99891.19;5096036;28;8834;-61
2023/05/05 08:27:24;;;;;;;;;8.40;8.40;;;;;21.51;45.97;99888.66;5096174;28;8842;-60
2023/05/05 08:29:52;;;;;;;;;13.80;10.80;;;;;21.52;46.36;99888.47;5095969;28;8818;-59
2023/05/05 08:32:20;;;;;;;;;12.20;11.20;;;;;21.61;45.87;99886.44;5096291;28;8861;-62
2023/05/05 08:34:48;;;;;;;;;14.60;12.00;;;;;21.70;45.99;99890.78;5096612;28;8948;-60
2023/05/05 08:37:17;;;;;;;;;14.00;14.00;;;;;21.71;45.97;99889.72;5097248;28;8846;-60
2023/05/05 08:39:45;;;;;;;;;14.00;12.00;;;;;21.77;46.03;99886.22;5097238;28;8822;-60
2023/05/05 08:42:13;;;;;;;;;11.80;11.60;;;;;21.83;45.76;99886.28;5097358;28;8876;-59
2023/05/05 08:44:59;;;;;;;;;14.00;12.00;;;;;21.93;45.65;99889.50;5097499;28;8838;-60
2023/05/05 08:47:28;;;;;;;;;12.80;12.60;;;;;22.03;45.62;99891.88;5096446;28;8930;-59
2023/05/05 08:49:57;;;;;;;;;15.20;11.80;;;;;22.09;45.53;99888.41;5095958;28;9543;-59
2023/05/05 08:52:24;;;;;;;;;15.00;13.00;;;;;22.06;45.33;99897.75;5096359;28;8817;-60
2023/05/05 08:54:53;;;;;;;;;13.20;12.00;;;;;22.07;45.85;99901.28;5095509;28;8952;-61
2023/05/05 08:57:21;;;;;;;;;11.60;11.20;;;;;22.06;45.42;99886.06;5094772;28;8825;-60
2023/05/05 08:59:48;;;;;;;;;11.40;11.40;;;;;22.15;45.83;99887.63;5094842;28;8846;-60
2023/05/05 09:02:17;;;;;;;;;12.00;11.40;;;;;22.27;45.72;99888.72;5095130;28;8858;-59
2023/05/05 09:04:45;;;;;;;;;15.00;14.60;;;;;22.36;45.57;99892.97;5095020;28;8830;-62
2023/05/05 09:07:13;;;;;;;;;12.20;11.80;;;;;22.43;45.06;99891.16;5095287;28;8976;-60
2023/05/05 09:09:42;;;;;;;;;9.00;8.20;;;;;22.46;45.40;99883.47;5095080;28;8868;-60
2023/05/05 09:12:10;;;;;;;;;8.00;8.00;;;;;22.49;45.10;99890.38;5095492;28;9519;-60
2023/05/05 09:14:39;;;;;;;;;12.20;12.00;;;;;22.57;45.46;99895.66;5100724;28;8830;-60
2023/05/05 09:17:07;;;;;;;;;13.00;12.80;;;;;22.66;45.14;99891.72;5096512;28;9519;-61
2023/05/05 09:19:35;;;;;;;;;11.00;10.00;;;;;22.76;44.91;99894.94;5095711;28;8853;-61
2023/05/05 09:22:03;;;;;;;;;8.60;8.40;;;;;22.84;44.73;99892.06;5095313;28;8837;-60
2023/05/05 09:24:31;;;;;;;;;12.40;10.20;;;;;22.91;44.54;99882.06;5094916;28;9854;-60
2023/05/05 09:27:00;;;;;;;;;14.60;13.00;;;;;23.01;44.39;99879.78;5095496;28;8932;-60
2023/05/05 09:29:28;;;;;;;;;16.80;13.60;;;;;23.12;44.79;99876.47;5095281;28;8964;-60
2023/05/05 09:31:56;;;;;;;;;14.60;13.00;;;;;23.23;44.54;99876.75;5094861;28;9617;-61
2023/05/05 09:34:24;;;;;;;;;13.20;12.20;;;;;23.42;43.70;99880.59;5094175;28;8834;-60
2023/05/05 09:36:52;;;;;;;;;12.60;12.60;;;;;23.62;44.21;99873.31;5094616;28;8960;-61
2023/05/05 09:39:20;;;;;;;;;11.60;11.60;;;;;23.91;42.85;99883.84;5094579;28;8840;-62
2023/05/05 09:41:48;;;;;;;;;13.00;10.80;;;;;24.18;43.03;99883.63;5094509;28;8846;-60
2023/05/05 09:44:16;;;;;;;;;8.60;7.40;;;;;24.38;42.89;99880.88;5095290;28;8856;-59
2023/05/05 09:46:44;;;;;;;;;12.20;10.60;;;;;24.67;42.56;99883.16;5094910;28;8902;-62
2023/05/05 09:49:12;;;;;;;;;15.00;14.20;;;;;24.83;42.60;99879.97;5094625;28;8849;-61
2023/05/05 09:51:41;;;;;;;;;11.00;11.00;;;;;25.14;42.30;99890.97;5094999;28;8848;-59
2023/05/05 09:54:09;;;;;;;;;12.80;11.80;;;;;25.42;41.50;99883.31;5095150;28;8841;-62
2023/05/05 09:56:36;;;;;;;;;10.20;10.20;;;;;25.49;41.63;99890.38;5095574;28;8852;-61
2023/05/05 09:59:04;;;;;;;;;11.40;10.80;;;;;25.76;41.07;99879.09;5095211;28;8842;-60
2023/05/05 10:01:32;;;;;;;;;12.40;12.20;;;;;26.03;41.13;99883.31;5093869;28;8884;-60
2023/05/05 10:04:00;;;;;;;;;10.60;10.00;;;;;26.44;40.28;99880.84;5093526;28;8833;-60
2023/05/05 10:06:28;;;;;;;;;13.00;12.60;;;;;26.78;39.78;99880.31;5093917;28;8822;-61
2023/05/05 10:08:56;;;;;;;;;15.00;12.80;;;;;27.15;39.69;99876.53;5093534;28;8825;-60
2023/05/05 10:11:24;;;;;;;;;15.60;14.80;;;;;27.63;39.24;99871.03;5093391;28;8910;-60
2023/05/05 10:13:52;;;;;;;;;12.60;11.20;;;;;28.01;38.94;99868.75;5093724;28;8842;-62
2023/05/05 10:16:22;;;;;;;;;11.80;11.00;;;;;28.23;38.03;99867.94;5093644;28;8838;-60
2023/05/05 10:18:50;;;;;;;;;8.20;8.00;;;;;28.46;37.99;99867.97;5093418;28;8838;-61
2023/05/05 10:21:18;;;;;;;;;11.80;11.80;;;;;28.61;37.90;99873.81;5092893;28;8838;-60
2023/05/05 10:23:47;;;;;;;;;10.00;10.00;;;;;28.78;38.26;99865.69;5093267;28;8849;-61
2023/05/05 10:26:15;;;;;;;;;11.40;9.80;;;;;29.01;37.88;99863.78;5093052;28;8853;-60
2023/05/05 10:28:43;;;;;;;;;9.80;9.20;;;;;29.27;37.27;99859.63;5093569;28;8818;-61
2023/05/05 10:31:11;;;;;;;;;14.80;12.80;;;;;29.64;36.73;99856.25;5093964;28;8841;-61
2023/05/05 10:33:54;;;;;;;;;14.20;13.20;;;;;29.77;36.66;99864.19;5094404;28;8822;-61
2023/05/05 10:36:22;;;;;;;;;11.00;10.00;;;;;29.21;37.00;99853.19;5093998;28;8853;-60
2023/05/05 10:38:53;;;;;;;;;5.00;5.00;;;;;29.21;37.87;99857.88;5093854;28;8822;-60
2023/05/05 10:41:21;;;;;;;;;7.20;7.20;;;;;29.39;37.14;99853.03;5094096;28;8830;-60
2023/05/05 10:43:50;;;;;;;;;9.00;8.40;;;;;29.16;37.61;99847.63;5093187;28;8834;-60
2023/05/05 10:46:28;;;;;;;;;7.40;6.80;;;;;29.41;37.44;99839.88;5093574;28;8857;-60
2023/05/05 10:48:56;;;;;;;;;8.00;7.60;;;;;29.95;36.71;99831.00;5092949;28;8841;-63
2023/05/05 10:51:24;;;;;;;;;8.40;8.00;;;;;30.06;36.72;99830.09;5092727;28;8968;-60
2023/05/05 10:54:07;;;;;;;;;8.20;7.20;;;;;30.07;36.34;99822.66;5094086;28;9515;-61
2023/05/05 10:56:35;;;;;;;;;10.00;9.60;;;;;30.26;36.17;99816.66;5093731;28;8858;-61
2023/05/05 10:59:04;;;;;;;;;7.00;7.00;;;;;29.88;36.68;99822.06;5094081;28;8843;-61
2023/05/05 11:01:32;;;;;;;;;9.60;9.00;;;;;29.57;37.39;99811.66;5093535;28;8887;-61
2023/05/05 11:04:00;;;;;;;;;9.80;8.40;;;;;30.04;36.61;99820.44;5093168;28;8846;-61
2023/05/05 11:06:29;;;;;;;;;7.40;7.40;;;;;30.15;36.30;99814.88;5092886;28;8833;-61
2023/05/05 11:08:58;;;;;;;;;9.20;7.40;;;;;29.81;36.93;99804.09;5092942;28;8841;-61
2023/05/05 11:11:26;;;;;;;;;11.80;9.60;;;;;29.98;36.62;99807.69;5092594;28;8960;-61
2023/05/05 11:13:54;;;;;;;;;10.20;9.80;;;;;30.08;36.84;99803.22;5093304;28;9620;-61
2023/05/05 11:16:23;;;;;;;;;10.00;9.40;;;;;30.33;36.05;99792.59;5092816;28;8899;-60
2023/05/05 11:18:50;;;;;;;;;7.20;6.20;;;;;30.70;35.29;99792.88;5094238;28;8842;-60
2023/05/05 11:21:19;;;;;;;;;7.00;6.60;;;;;31.12;35.55;99789.25;5099407;28;8837;-61
2023/05/05 11:23:47;;;;;;;;;7.40;7.40;;;;;31.17;34.92;99787.41;5094056;28;8922;-60
2023/05/05 11:26:15;;;;;;;;;7.00;6.00;;;;;30.70;36.00;99781.88;5094358;28;8830;-61
2023/05/05 11:28:43;;;;;;;;;6.60;6.20;;;;;29.86;37.14;99779.44;5096143;28;8846;-61
2023/05/05 11:31:11;;;;;;;;;3.20;3.20;;;;;29.30;38.02;99763.94;5093938;28;8854;-60
2023/05/05 11:33:39;;;;;;;;;7.80;7.20;;;;;28.86;38.36;99772.06;5093839;28;8822;-61
2023/05/05 11:36:08;;;;;;;;;8.00;8.00;;;;;28.51;38.70;99782.31;5096171;28;8826;-61